Time,TemperatureF,DewpointF,PressureIn,WindDirection,WindDirectionDegrees,WindSpeedMPH,WindSpeedGustMPH,Humidity,HourlyPrecipIn,Conditions,Clouds,dailyrainin,SolarRadiationWatts/m^2,SoftwareType,DateUTC
2013-11-08 00:00:00,35.0,27.0,-100.00,West,270,10.0,-999.0,71,-99.99,,,-99.99,0.000000,,2013-11-08 05:00:00,
2013-11-08 00:44:00,35.0,27.0,-100.00,West,270,10.0,-999.0,71,-99.99,,,-99.99,0.000000,,2013-11-08 05:44:00,
2013-11-08 00:54:00,35.0,27.0,-100.00,West,270,10.0,-999.0,71,-99.99,,,-99.99,0.000000,,2013-11-08 05:54:00,
2013-11-08 01:00:00,35.0,27.0,-100.00,West,270,8.0,-999.0,74,-99.99,,,-99.99,0.000000,,2013-11-08 06:00:00,
2013-11-08 01:42:00,35.0,27.0,-100.00,West,270,8.0,-999.0,74,-99.99,,,-99.99,0.000000,,2013-11-08 06:42:00,
2013-11-08 01:53:00,35.0,27.0,-100.00,West,270,8.0,-999.0,74,-99.99,,,-99.99,0.000000,,2013-11-08 06:53:00,
2013-11-08 02:00:00,34.0,27.0,-100.00,West,270,9.0,-999.0,74,-99.99,,,-99.99,0.000000,,2013-11-08 07:00:00,
2013-11-08 02:42:00,34.0,27.0,-100.00,West,270,9.0,-999.0,74,-99.99,,,-99.99,0.000000,,2013-11-08 07:42:00,
2013-11-08 02:52:00,34.0,27.0,-100.00,West,270,9.0,-999.0,74,-99.99,,,-99.99,0.000000,,2013-11-08 07:52:00,
2013-11-08 03:00:00,34.0,27.0,-100.00,West,270,8.0,-999.0,74,-99.99,,,-99.99,0.000000,,2013-11-08 08:00:00,
2013-11-08 03:42:00,34.0,27.0,-100.00,West,270,8.0,-999.0,74,-99.99,,,-99.99,0.000000,,2013-11-08 08:42:00,
2013-11-08 03:52:00,34.0,27.0,-100.00,West,270,8.0,-999.0,74,-99.99,,,-99.99,0.000000,,2013-11-08 08:52:00,
2013-11-08 04:00:00,33.0,27.0,-100.00,WSW,247,6.0,-999.0,79,-99.99,,,-99.99,0.000000,,2013-11-08 09:00:00,
2013-11-08 04:43:00,33.0,27.0,-100.00,WSW,247,6.0,-999.0,79,-99.99,,,-99.99,0.000000,,2013-11-08 09:43:00,
2013-11-08 04:54:00,33.0,27.0,-100.00,WSW,247,6.0,-999.0,79,-99.99,,,-99.99,0.000000,,2013-11-08 09:54:00,
2013-11-08 05:00:00,31.0,26.0,-100.00,WSW,247,5.0,-999.0,84,-99.99,,,-99.99,0.000000,,2013-11-08 10:00:00,
2013-11-08 05:43:00,31.0,26.0,-100.00,WSW,247,5.0,-999.0,84,-99.99,,,-99.99,0.000000,,2013-11-08 10:43:00,
2013-11-08 05:53:00,31.0,26.0,-100.00,WSW,247,5.0,-999.0,84,-99.99,,,-99.99,0.000000,,2013-11-08 10:53:00,
2013-11-08 06:00:00,29.0,26.0,-100.00,WSW,247,5.0,-999.0,88,-99.99,,,-99.99,0.000000,,2013-11-08 11:00:00,
2013-11-08 06:43:00,29.0,26.0,-100.00,WSW,247,5.0,-999.0,88,-99.99,,,-99.99,0.000000,,2013-11-08 11:43:00,
2013-11-08 06:52:00,29.0,26.0,-100.00,WSW,247,5.0,-999.0,88,-99.99,,,-99.99,0.000000,,2013-11-08 11:52:00,
2013-11-08 07:00:00,28.0,26.0,-100.00,WSW,247,1.0,-999.0,90,-99.99,,,-99.99,0.000000,,2013-11-08 12:00:00,
2013-11-08 07:42:00,28.0,26.0,-100.00,WSW,247,1.0,-999.0,90,-99.99,,,-99.99,0.000000,,2013-11-08 12:42:00,
2013-11-08 07:52:00,28.0,26.0,-100.00,WSW,247,1.0,-999.0,90,-99.99,,,-99.99,0.000000,,2013-11-08 12:52:00,
2013-11-08 08:00:00,29.0,27.0,-100.00,WSW,247,0.0,-999.0,90,-99.99,,,-99.99,22.040001,,2013-11-08 13:00:00,
2013-11-08 08:42:00,29.0,27.0,-100.00,WSW,247,0.0,-999.0,90,-99.99,,,-99.99,22.040001,,2013-11-08 13:42:00,
2013-11-08 08:52:00,29.0,27.0,-100.00,WSW,247,0.0,-999.0,90,-99.99,,,-99.99,22.040001,,2013-11-08 13:52:00,
2013-11-08 10:00:00,38.0,30.0,-100.00,West,270,9.0,-999.0,74,-99.99,,,-99.99,285.359985,,2013-11-08 15:00:00,
2013-11-08 10:44:00,38.0,30.0,-100.00,West,270,9.0,-999.0,74,-99.99,,,-99.99,285.359985,,2013-11-08 15:44:00,
2013-11-08 10:53:00,38.0,30.0,-100.00,West,270,9.0,-999.0,74,-99.99,,,-99.99,285.359985,,2013-11-08 15:53:00,
2013-11-08 11:00:00,41.0,29.0,-100.00,West,270,10.0,-999.0,62,-99.99,,,-99.99,397.880005,,2013-11-08 16:00:00,
2013-11-08 11:42:00,41.0,29.0,-100.00,West,270,10.0,-999.0,62,-99.99,,,-99.99,397.880005,,2013-11-08 16:42:00,
2013-11-08 11:53:00,41.0,29.0,-100.00,West,270,10.0,-999.0,62,-99.99,,,-99.99,397.880005,,2013-11-08 16:53:00,
2013-11-08 12:00:00,42.0,27.0,-100.00,West,270,8.0,-999.0,54,-99.99,,,-99.99,330.600006,,2013-11-08 17:00:00,
2013-11-08 12:43:00,42.0,27.0,-100.00,West,270,8.0,-999.0,54,-99.99,,,-99.99,330.600006,,2013-11-08 17:43:00,
2013-11-08 12:53:00,42.0,27.0,-100.00,West,270,8.0,-999.0,54,-99.99,,,-99.99,330.600006,,2013-11-08 17:53:00,
2013-11-08 13:00:00,42.0,26.0,-100.00,West,270,8.0,-999.0,52,-99.99,,,-99.99,209.960007,,2013-11-08 18:00:00,
2013-11-08 13:43:00,42.0,26.0,-100.00,West,270,8.0,-999.0,52,-99.99,,,-99.99,209.960007,,2013-11-08 18:43:00,
2013-11-08 13:53:00,42.0,26.0,-100.00,West,270,8.0,-999.0,52,-99.99,,,-99.99,209.960007,,2013-11-08 18:53:00,
2013-11-08 14:00:00,43.0,25.0,-100.00,WSW,247,9.0,-999.0,50,-99.99,,,-99.99,212.279999,,2013-11-08 19:00:00,
2013-11-08 14:42:00,43.0,25.0,-100.00,WSW,247,9.0,-999.0,50,-99.99,,,-99.99,212.279999,,2013-11-08 19:42:00,
2013-11-08 14:53:00,43.0,25.0,-100.00,WSW,247,9.0,-999.0,50,-99.99,,,-99.99,212.279999,,2013-11-08 19:53:00,
2013-11-08 15:00:00,42.0,26.0,-100.00,WSW,247,8.0,-999.0,52,-99.99,,,-99.99,208.800003,,2013-11-08 20:00:00,
2013-11-08 15:42:00,42.0,26.0,-100.00,WSW,247,8.0,-999.0,52,-99.99,,,-99.99,208.800003,,2013-11-08 20:42:00,
2013-11-08 15:53:00,42.0,26.0,-100.00,WSW,247,8.0,-999.0,52,-99.99,,,-99.99,208.800003,,2013-11-08 20:53:00,
2013-11-08 16:00:00,43.0,25.0,-100.00,SW,225,8.0,-999.0,48,-99.99,,,-99.99,208.800003,,2013-11-08 21:00:00,
2013-11-08 16:45:00,43.0,25.0,-100.00,SW,225,8.0,-999.0,48,-99.99,,,-99.99,208.800003,,2013-11-08 21:45:00,
2013-11-08 16:54:00,43.0,25.0,-100.00,SW,225,8.0,-999.0,48,-99.99,,,-99.99,208.800003,,2013-11-08 21:54:00,
2013-11-08 17:00:00,41.0,26.0,-100.00,SW,225,3.0,-999.0,54,-99.99,,,-99.99,59.160000,,2013-11-08 22:00:00,
2013-11-08 17:43:00,41.0,26.0,-100.00,SW,225,3.0,-999.0,54,-99.99,,,-99.99,59.160000,,2013-11-08 22:43:00,
2013-11-08 17:53:00,41.0,26.0,-100.00,SW,225,3.0,-999.0,54,-99.99,,,-99.99,59.160000,,2013-11-08 22:53:00,
2013-11-08 18:00:00,37.0,26.0,-100.00,South,180,0.0,-999.0,62,-99.99,,,-99.99,2.320000,,2013-11-08 23:00:00,
2013-11-08 18:43:00,37.0,26.0,-100.00,South,180,0.0,-999.0,62,-99.99,,,-99.99,2.320000,,2013-11-08 23:43:00,
2013-11-08 18:53:00,37.0,26.0,-100.00,South,180,0.0,-999.0,62,-99.99,,,-99.99,2.320000,,2013-11-08 23:53:00,
2013-11-08 19:00:00,33.0,26.0,-100.00,South,180,0.0,-999.0,77,-99.99,,,-99.99,0.000000,,2013-11-09 00:00:00,
2013-11-08 19:42:00,33.0,26.0,-100.00,South,180,0.0,-999.0,77,-99.99,,,-99.99,0.000000,,2013-11-09 00:42:00,
2013-11-08 19:52:00,33.0,26.0,-100.00,South,180,0.0,-999.0,77,-99.99,,,-99.99,0.000000,,2013-11-09 00:52:00,
2013-11-08 20:00:00,32.0,26.0,-100.00,South,180,0.0,-999.0,77,-99.99,,,-99.99,0.000000,,2013-11-09 01:00:00,
2013-11-08 20:42:00,32.0,26.0,-100.00,South,180,0.0,-999.0,77,-99.99,,,-99.99,0.000000,,2013-11-09 01:42:00,
2013-11-08 20:52:00,32.0,26.0,-100.00,South,180,0.0,-999.0,77,-99.99,,,-99.99,0.000000,,2013-11-09 01:52:00,
2013-11-08 21:00:00,30.0,26.0,-100.00,SSE,157,0.0,-999.0,83,-99.99,,,-99.99,0.000000,,2013-11-09 02:00:00,
2013-11-08 21:42:00,30.0,26.0,-100.00,SSE,157,0.0,-999.0,83,-99.99,,,-99.99,0.000000,,2013-11-09 02:42:00,
2013-11-08 21:52:00,30.0,26.0,-100.00,SSE,157,0.0,-999.0,83,-99.99,,,-99.99,0.000000,,2013-11-09 02:52:00,
2013-11-08 22:00:00,31.0,27.0,-100.00,SSE,157,0.0,-999.0,86,-99.99,,,-99.99,0.000000,,2013-11-09 03:00:00,
2013-11-08 22:44:00,31.0,27.0,-100.00,SSE,157,0.0,-999.0,86,-99.99,,,-99.99,0.000000,,2013-11-09 03:44:00,
2013-11-08 22:54:00,31.0,27.0,-100.00,SSE,157,0.0,-999.0,86,-99.99,,,-99.99,0.000000,,2013-11-09 03:54:00,
2013-11-08 23:00:00,34.0,29.0,-100.00,SSE,157,0.0,-999.0,84,-99.99,,,-99.99,0.000000,,2013-11-09 04:00:00,
2013-11-08 23:43:00,34.0,29.0,-100.00,SSE,157,0.0,-999.0,84,-99.99,,,-99.99,0.000000,,2013-11-09 04:43:00,
2013-11-08 23:54:00,34.0,29.0,-100.00,SSE,157,0.0,-999.0,84,-99.99,,,-99.99,0.000000,,2013-11-09 04:54:00,